sensor_id;sensor_type;location;lat;lon;timestamp;noise_LAeq;noise_LA_min;noise_LA_max;noise_LA01;noise_LA95
37833;Laerm;23678;48.778;9.160;2023-12-20T00:01:29;37.44;32.93;41.53;;
37833;Laerm;23678;48.778;9.160;2023-12-20T00:04:13;38.35;30.89;49.79;;
37833;Laerm;23678;48.778;9.160;2023-12-20T00:06:57;37.35;32.35;40.98;;
37833;Laerm;23678;48.778;9.160;2023-12-20T00:09:41;37.19;32.35;40.33;;
37833;Laerm;23678;48.778;9.160;2023-12-20T00:12:25;37.17;32.35;40.43;;
37833;Laerm;23678;48.778;9.160;2023-12-20T00:15:09;37.24;32.93;42.93;;
37833;Laerm;23678;48.778;9.160;2023-12-20T00:17:53;37.20;32.35;41.82;;
37833;Laerm;23678;48.778;9.160;2023-12-20T00:20:37;37.68;32.93;41.68;;
37833;Laerm;23678;48.778;9.160;2023-12-20T00:23:21;37.14;30.89;45.51;;
37833;Laerm;23678;48.778;9.160;2023-12-20T00:26:06;37.52;29.92;50.67;;
37833;Laerm;23678;48.778;9.160;2023-12-20T00:28:50;38.07;32.93;60.13;;
37833;Laerm;23678;48.778;9.160;2023-12-20T00:31:34;39.84;33.44;54.33;;
37833;Laerm;23678;48.778;9.160;2023-12-20T00:34:18;38.52;33.90;62.55;;
37833;Laerm;23678;48.778;9.160;2023-12-20T00:37:02;43.05;35.31;77.59;;
37833;Laerm;23678;48.778;9.160;2023-12-20T00:39:46;38.73;34.69;60.07;;
37833;Laerm;23678;48.778;9.160;2023-12-20T00:42:30;38.03;32.93;54.26;;
37833;Laerm;23678;48.778;9.160;2023-12-20T00:45:14;38.74;33.44;58.54;;
37833;Laerm;23678;48.778;9.160;2023-12-20T00:47:58;39.79;33.97;56.10;;
37833;Laerm;23678;48.778;9.160;2023-12-20T00:50:43;38.07;33.90;52.95;;
37833;Laerm;23678;48.778;9.160;2023-12-20T00:53:27;38.46;34.69;55.04;;
37833;Laerm;23678;48.778;9.160;2023-12-20T00:56:11;39.82;35.66;60.33;;
37833;Laerm;23678;48.778;9.160;2023-12-20T00:58:55;38.30;33.90;55.33;;
37833;Laerm;23678;48.778;9.160;2023-12-20T01:01:39;38.17;34.69;51.43;;
37833;Laerm;23678;48.778;9.160;2023-12-20T01:04:23;40.29;34.69;71.07;;
37833;Laerm;23678;48.778;9.160;2023-12-20T01:07:07;38.59;35.31;56.23;;
37833;Laerm;23678;48.778;9.160;2023-12-20T01:09:51;39.70;35.04;66.04;;
37833;Laerm;23678;48.778;9.160;2023-12-20T01:12:36;40.55;36.45;64.41;;
37833;Laerm;23678;48.778;9.160;2023-12-20T01:15:19;41.06;37.12;64.78;;
37833;Laerm;23678;48.778;9.160;2023-12-20T01:18:04;40.83;36.20;66.39;;
37833;Laerm;23678;48.778;9.160;2023-12-20T01:20:47;39.38;35.36;60.65;;
37833;Laerm;23678;48.778;9.160;2023-12-20T01:23:32;41.11;36.45;66.54;;
37833;Laerm;23678;48.778;9.160;2023-12-20T01:26:15;40.11;35.94;58.78;;
37833;Laerm;23678;48.778;9.160;2023-12-20T01:29:00;40.24;36.20;60.41;;
37833;Laerm;23678;48.778;9.160;2023-12-20T01:31:44;39.60;35.66;59.11;;
37833;Laerm;23678;48.778;9.160;2023-12-20T01:34:28;43.17;35.94;73.20;;
37833;Laerm;23678;48.778;9.160;2023-12-20T01:37:12;39.22;35.04;60.84;;
37833;Laerm;23678;48.778;9.160;2023-12-20T01:39:57;49.21;32.93;85.14;;
37833;Laerm;23678;48.778;9.160;2023-12-20T01:42:42;40.42;35.36;69.95;;
37833;Laerm;23678;48.778;9.160;2023-12-20T01:45:26;51.16;29.92;87.60;;
37833;Laerm;23678;48.778;9.160;2023-12-20T01:48:10;38.82;35.04;57.24;;
37833;Laerm;23678;48.778;9.160;2023-12-20T01:50:54;39.30;35.04;63.08;;
37833;Laerm;23678;48.778;9.160;2023-12-20T01:53:39;39.09;35.04;57.72;;
37833;Laerm;23678;48.778;9.160;2023-12-20T01:56:25;40.06;35.04;67.02;;
37833;Laerm;23678;48.778;9.160;2023-12-20T01:59:09;38.97;34.31;59.76;;
37833;Laerm;23678;48.778;9.160;2023-12-20T02:01:53;39.48;35.04;61.77;;
37833;Laerm;23678;48.778;9.160;2023-12-20T02:04:37;40.12;34.31;68.04;;
37833;Laerm;23678;48.778;9.160;2023-12-20T02:07:22;38.96;34.31;61.59;;
37833;Laerm;23678;48.778;9.160;2023-12-20T02:10:06;40.70;34.69;72.09;;
37833;Laerm;23678;48.778;9.160;2023-12-20T02:12:50;39.64;34.69;64.42;;
37833;Laerm;23678;48.778;9.160;2023-12-20T02:15:34;39.91;35.04;62.82;;
37833;Laerm;23678;48.778;9.160;2023-12-20T02:18:20;38.84;34.31;58.51;;
37833;Laerm;23678;48.778;9.160;2023-12-20T02:21:05;38.54;35.36;55.93;;
37833;Laerm;23678;48.778;9.160;2023-12-20T02:23:49;38.20;35.04;53.82;;
37833;Laerm;23678;48.778;9.160;2023-12-20T02:26:33;39.79;34.69;63.67;;
37833;Laerm;23678;48.778;9.160;2023-12-20T02:29:17;38.81;34.69;60.71;;
37833;Laerm;23678;48.778;9.160;2023-12-20T02:32:01;39.35;34.69;61.86;;
37833;Laerm;23678;48.778;9.160;2023-12-20T02:34:47;38.82;34.31;62.26;;
37833;Laerm;23678;48.778;9.160;2023-12-20T02:37:32;38.29;33.90;48.63;;
37833;Laerm;23678;48.778;9.160;2023-12-20T02:40:16;38.93;34.31;63.17;;
37833;Laerm;23678;48.778;9.160;2023-12-20T02:43:00;38.53;33.90;57.51;;
37833;Laerm;23678;48.778;9.160;2023-12-20T02:45:44;38.39;34.31;57.88;;
37833;Laerm;23678;48.778;9.160;2023-12-20T02:48:28;39.22;34.69;64.23;;
37833;Laerm;23678;48.778;9.160;2023-12-20T02:51:15;48.94;35.36;85.07;;
37833;Laerm;23678;48.778;9.160;2023-12-20T02:53:59;39.04;35.36;59.84;;
37833;Laerm;23678;48.778;9.160;2023-12-20T02:56:43;39.29;35.04;59.17;;
37833;Laerm;23678;48.778;9.160;2023-12-20T02:59:27;40.02;35.66;65.30;;
37833;Laerm;23678;48.778;9.160;2023-12-20T03:02:11;39.78;35.66;62.00;;
37833;Laerm;23678;48.778;9.160;2023-12-20T03:04:55;40.18;35.94;63.82;;
37833;Laerm;23678;48.778;9.160;2023-12-20T03:07:39;39.83;35.01;63.74;;
37833;Laerm;23678;48.778;9.160;2023-12-20T03:10:23;39.70;35.04;66.84;;
37833;Laerm;23678;48.778;9.160;2023-12-20T03:13:07;41.92;35.66;72.02;;
37833;Laerm;23678;48.778;9.160;2023-12-20T03:15:53;42.42;35.36;71.67;;
37833;Laerm;23678;48.778;9.160;2023-12-20T03:18:38;44.96;35.66;77.26;;
37833;Laerm;23678;48.778;9.160;2023-12-20T03:21:21;41.99;36.20;70.11;;
37833;Laerm;23678;48.778;9.160;2023-12-20T03:24:05;40.46;35.94;65.61;;
37833;Laerm;23678;48.778;9.160;2023-12-20T03:26:49;41.43;36.69;68.64;;
37833;Laerm;23678;48.778;9.160;2023-12-20T03:29:33;42.01;36.45;67.38;;
37833;Laerm;23678;48.778;9.160;2023-12-20T03:32:18;42.00;35.36;73.57;;
37833;Laerm;23678;48.778;9.160;2023-12-20T03:35:02;48.73;33.90;84.48;;
37833;Laerm;23678;48.778;9.160;2023-12-20T03:37:49;40.48;36.20;62.97;;
37833;Laerm;23678;48.778;9.160;2023-12-20T03:40:33;39.12;35.94;51.65;;
37833;Laerm;23678;48.778;9.160;2023-12-20T03:43:17;45.63;36.20;80.06;;
37833;Laerm;23678;48.778;9.160;2023-12-20T03:46:03;40.99;36.20;64.92;;
37833;Laerm;23678;48.778;9.160;2023-12-20T03:48:47;40.48;36.20;67.97;;
37833;Laerm;23678;48.778;9.160;2023-12-20T03:51:31;39.44;34.69;65.19;;
37833;Laerm;23678;48.778;9.160;2023-12-20T03:54:15;39.43;35.94;58.28;;
37833;Laerm;23678;48.778;9.160;2023-12-20T03:57:01;39.35;35.31;63.28;;
37833;Laerm;23678;48.778;9.160;2023-12-20T03:59:45;38.83;35.04;52.17;;
37833;Laerm;23678;48.778;9.160;2023-12-20T04:02:29;41.43;35.94;67.02;;
37833;Laerm;23678;48.778;9.160;2023-12-20T04:05:12;39.54;35.66;65.58;;
37833;Laerm;23678;48.778;9.160;2023-12-20T04:07:56;39.48;35.66;61.81;;
37833;Laerm;23678;48.778;9.160;2023-12-20T04:10:40;38.81;35.36;52.99;;
37833;Laerm;23678;48.778;9.160;2023-12-20T04:13:24;39.81;35.66;62.11;;
37833;Laerm;23678;48.778;9.160;2023-12-20T04:16:08;40.38;35.66;68.71;;
37833;Laerm;23678;48.778;9.160;2023-12-20T04:18:52;39.93;35.94;66.16;;
37833;Laerm;23678;48.778;9.160;2023-12-20T04:21:36;38.78;35.04;57.35;;
37833;Laerm;23678;48.778;9.160;2023-12-20T04:24:20;40.67;35.36;53.76;;
37833;Laerm;23678;48.778;9.160;2023-12-20T04:27:05;38.50;34.69;43.94;;
37833;Laerm;23678;48.778;9.160;2023-12-20T04:29:50;38.58;35.04;43.49;;
37833;Laerm;23678;48.778;9.160;2023-12-20T04:32:34;38.76;35.04;48.02;;
37833;Laerm;23678;48.778;9.160;2023-12-20T04:35:18;38.43;35.04;52.60;;
37833;Laerm;23678;48.778;9.160;2023-12-20T04:38:03;38.40;34.69;40.89;;
37833;Laerm;23678;48.778;9.160;2023-12-20T04:40:46;39.72;34.69;49.10;;
37833;Laerm;23678;48.778;9.160;2023-12-20T04:43:31;38.48;34.69;44.23;;
37833;Laerm;23678;48.778;9.160;2023-12-20T04:46:15;38.60;35.04;45.69;;
37833;Laerm;23678;48.778;9.160;2023-12-20T04:48:59;38.59;34.69;43.63;;
37833;Laerm;23678;48.778;9.160;2023-12-20T04:51:43;38.49;34.31;41.61;;
37833;Laerm;23678;48.778;9.160;2023-12-20T04:54:27;39.29;34.69;45.30;;
37833;Laerm;23678;48.778;9.160;2023-12-20T04:57:11;38.31;34.31;40.98;;
37833;Laerm;23678;48.778;9.160;2023-12-20T04:59:55;39.98;34.69;52.40;;
37833;Laerm;23678;48.778;9.160;2023-12-20T05:02:40;38.67;33.90;42.98;;
37833;Laerm;23678;48.778;9.160;2023-12-20T05:05:23;38.57;34.69;48.74;;
37833;Laerm;23678;48.778;9.160;2023-12-20T05:08:07;38.45;33.44;42.98;;
37833;Laerm;23678;48.778;9.160;2023-12-20T05:10:53;39.28;35.36;49.29;;
37833;Laerm;23678;48.778;9.160;2023-12-20T05:13:37;42.38;35.04;58.42;;
37833;Laerm;23678;48.778;9.160;2023-12-20T05:16:21;38.55;34.69;41.14;;
37833;Laerm;23678;48.778;9.160;2023-12-20T05:19:05;43.07;35.66;57.20;;
37833;Laerm;23678;48.778;9.160;2023-12-20T05:21:50;40.29;35.36;54.63;;
37833;Laerm;23678;48.778;9.160;2023-12-20T05:24:37;41.35;34.69;51.67;;
37833;Laerm;23678;48.778;9.160;2023-12-20T05:27:21;45.03;35.04;58.98;;
37833;Laerm;23678;48.778;9.160;2023-12-20T05:30:06;39.04;35.04;42.47;;
37833;Laerm;23678;48.778;9.160;2023-12-20T05:32:50;41.61;35.31;54.09;;
37833;Laerm;23678;48.778;9.160;2023-12-20T05:35:34;39.21;35.66;44.90;;
37833;Laerm;23678;48.778;9.160;2023-12-20T05:38:18;39.80;35.04;55.18;;
37833;Laerm;23678;48.778;9.160;2023-12-20T05:41:02;41.26;36.45;50.06;;
37833;Laerm;23678;48.778;9.160;2023-12-20T05:43:47;40.55;35.94;44.62;;
37833;Laerm;23678;48.778;9.160;2023-12-20T05:46:32;40.22;35.94;50.21;;
37833;Laerm;23678;48.778;9.160;2023-12-20T05:49:16;41.58;34.69;52.70;;
37833;Laerm;23678;48.778;9.160;2023-12-20T05:52:01;42.28;36.20;58.78;;
37833;Laerm;23678;48.778;9.160;2023-12-20T05:54:44;39.97;35.66;49.59;;
37833;Laerm;23678;48.778;9.160;2023-12-20T05:57:29;44.12;36.45;61.62;;
37833;Laerm;23678;48.778;9.160;2023-12-20T06:00:13;44.12;36.69;63.21;;
37833;Laerm;23678;48.778;9.160;2023-12-20T06:02:57;40.74;36.45;69.05;;
37833;Laerm;23678;48.778;9.160;2023-12-20T06:05:41;41.27;36.20;50.35;;
37833;Laerm;23678;48.778;9.160;2023-12-20T06:08:25;40.49;35.66;50.24;;
37833;Laerm;23678;48.778;9.160;2023-12-20T06:11:09;41.00;35.04;58.16;;
37833;Laerm;23678;48.778;9.160;2023-12-20T06:13:53;42.87;36.45;63.17;;
37833;Laerm;23678;48.778;9.160;2023-12-20T06:16:36;40.37;36.20;49.83;;
37833;Laerm;23678;48.778;9.160;2023-12-20T06:19:21;43.38;36.20;56.85;;
37833;Laerm;23678;48.778;9.160;2023-12-20T06:22:05;41.86;35.66;55.03;;
37833;Laerm;23678;48.778;9.160;2023-12-20T06:24:49;48.78;37.12;83.75;;
37833;Laerm;23678;48.778;9.160;2023-12-20T06:27:33;41.84;36.91;50.85;;
37833;Laerm;23678;48.778;9.160;2023-12-20T06:30:17;43.06;37.32;57.77;;
37833;Laerm;23678;48.778;9.160;2023-12-20T06:33:01;40.88;35.66;52.99;;
37833;Laerm;23678;48.778;9.160;2023-12-20T06:35:45;44.95;36.91;60.08;;
37833;Laerm;23678;48.778;9.160;2023-12-20T06:38:28;44.97;37.32;57.12;;
37833;Laerm;23678;48.778;9.160;2023-12-20T06:41:13;43.64;37.32;53.55;;
37833;Laerm;23678;48.778;9.160;2023-12-20T06:43:58;43.81;37.12;54.15;;
37833;Laerm;23678;48.778;9.160;2023-12-20T06:46:41;41.87;36.20;55.07;;
37833;Laerm;23678;48.778;9.160;2023-12-20T06:49:25;45.04;38.21;57.74;;
37833;Laerm;23678;48.778;9.160;2023-12-20T06:52:10;43.44;36.56;57.33;;
37833;Laerm;23678;48.778;9.160;2023-12-20T06:54:53;40.39;36.45;50.69;;
37833;Laerm;23678;48.778;9.160;2023-12-20T06:57:37;43.01;36.91;54.47;;
37833;Laerm;23678;48.778;9.160;2023-12-20T07:00:21;41.50;36.45;50.43;;
37833;Laerm;23678;48.778;9.160;2023-12-20T07:03:05;43.24;36.20;54.07;;
37833;Laerm;23678;48.778;9.160;2023-12-20T07:05:49;44.20;36.91;57.41;;
37833;Laerm;23678;48.778;9.160;2023-12-20T07:08:33;42.31;36.45;54.61;;
37833;Laerm;23678;48.778;9.160;2023-12-20T07:11:17;40.47;36.45;49.00;;
37833;Laerm;23678;48.778;9.160;2023-12-20T07:14:01;41.49;36.69;50.39;;
37833;Laerm;23678;48.778;9.160;2023-12-20T07:16:45;40.68;36.45;58.42;;
37833;Laerm;23678;48.778;9.160;2023-12-20T07:19:29;42.85;35.66;52.44;;
37833;Laerm;23678;48.778;9.160;2023-12-20T07:22:13;43.23;37.12;53.92;;
37833;Laerm;23678;48.778;9.160;2023-12-20T07:25:00;41.47;36.20;53.87;;
37833;Laerm;23678;48.778;9.160;2023-12-20T07:27:44;44.74;37.88;68.19;;
37833;Laerm;23678;48.778;9.160;2023-12-20T07:30:28;45.24;38.67;54.98;;
37833;Laerm;23678;48.778;9.160;2023-12-20T07:33:12;53.13;39.21;66.15;;
37833;Laerm;23678;48.778;9.160;2023-12-20T07:35:56;54.83;41.22;71.47;;
37833;Laerm;23678;48.778;9.160;2023-12-20T07:38:40;45.58;38.05;68.28;;
37833;Laerm;23678;48.778;9.160;2023-12-20T07:41:25;44.90;36.69;55.30;;
37833;Laerm;23678;48.778;9.160;2023-12-20T07:44:09;43.08;39.34;58.34;;
37833;Laerm;23678;48.778;9.160;2023-12-20T07:46:54;43.96;39.34;57.85;;
37833;Laerm;23678;48.778;9.160;2023-12-20T07:49:37;44.23;39.46;57.82;;
37833;Laerm;23678;48.778;9.160;2023-12-20T07:52:21;45.47;39.58;59.74;;
37833;Laerm;23678;48.778;9.160;2023-12-20T07:55:06;44.88;39.70;57.10;;
37833;Laerm;23678;48.778;9.160;2023-12-20T07:57:50;44.08;40.33;59.99;;
37833;Laerm;23678;48.778;9.160;2023-12-20T08:00:34;43.59;40.13;55.84;;
37833;Laerm;23678;48.778;9.160;2023-12-20T08:03:18;43.20;39.58;53.57;;
37833;Laerm;23678;48.778;9.160;2023-12-20T08:06:02;43.01;40.23;52.68;;
37833;Laerm;23678;48.778;9.160;2023-12-20T08:08:46;42.97;36.45;56.29;;
37833;Laerm;23678;48.778;9.160;2023-12-20T08:11:30;43.47;37.12;55.41;;
37833;Laerm;23678;48.778;9.160;2023-12-20T08:14:14;42.45;36.69;53.69;;
37833;Laerm;23678;48.778;9.160;2023-12-20T08:16:58;51.09;36.91;66.26;;
37833;Laerm;23678;48.778;9.160;2023-12-20T08:19:42;42.71;39.21;52.32;;
37833;Laerm;23678;48.778;9.160;2023-12-20T08:22:26;43.17;40.03;57.72;;
37833;Laerm;23678;48.778;9.160;2023-12-20T08:25:10;41.80;36.91;49.56;;
37833;Laerm;23678;48.778;9.160;2023-12-20T08:27:54;41.33;36.91;54.26;;
37833;Laerm;23678;48.778;9.160;2023-12-20T08:30:38;42.07;36.69;68.96;;
37833;Laerm;23678;48.778;9.160;2023-12-20T08:33:22;43.81;36.91;56.54;;
37833;Laerm;23678;48.778;9.160;2023-12-20T08:36:06;41.40;36.56;52.62;;
37833;Laerm;23678;48.778;9.160;2023-12-20T08:38:50;47.29;38.05;56.94;;
37833;Laerm;23678;48.778;9.160;2023-12-20T08:41:35;43.80;37.12;59.05;;
37833;Laerm;23678;48.778;9.160;2023-12-20T08:44:19;42.57;35.66;55.50;;
37833;Laerm;23678;48.778;9.160;2023-12-20T08:47:03;41.35;35.94;59.63;;
37833;Laerm;23678;48.778;9.160;2023-12-20T08:49:47;40.30;36.20;50.02;;
37833;Laerm;23678;48.778;9.160;2023-12-20T08:52:31;43.41;37.12;54.31;;
37833;Laerm;23678;48.778;9.160;2023-12-20T08:55:15;41.96;36.91;53.74;;
37833;Laerm;23678;48.778;9.160;2023-12-20T08:58:00;42.75;35.94;55.90;;
37833;Laerm;23678;48.778;9.160;2023-12-20T09:00:44;41.94;36.91;52.42;;
37833;Laerm;23678;48.778;9.160;2023-12-20T09:03:28;41.35;36.45;50.00;;
37833;Laerm;23678;48.778;9.160;2023-12-20T09:06:12;43.15;36.91;58.09;;
37833;Laerm;23678;48.778;9.160;2023-12-20T09:08:56;42.54;36.91;56.58;;
37833;Laerm;23678;48.778;9.160;2023-12-20T09:11:40;39.65;35.94;51.01;;
37833;Laerm;23678;48.778;9.160;2023-12-20T09:14:25;42.09;35.94;59.82;;
37833;Laerm;23678;48.778;9.160;2023-12-20T09:17:09;41.68;37.12;51.67;;
37833;Laerm;23678;48.778;9.160;2023-12-20T09:19:55;40.72;35.94;54.12;;
37833;Laerm;23678;48.778;9.160;2023-12-20T09:22:39;41.17;36.20;52.56;;
37833;Laerm;23678;48.778;9.160;2023-12-20T09:25:23;42.76;36.45;53.79;;
37833;Laerm;23678;48.778;9.160;2023-12-20T09:28:07;41.21;36.45;53.01;;
37833;Laerm;23678;48.778;9.160;2023-12-20T09:30:51;40.46;35.86;50.23;;
37833;Laerm;23678;48.778;9.160;2023-12-20T09:33:35;42.96;35.94;53.30;;
37833;Laerm;23678;48.778;9.160;2023-12-20T09:36:18;40.54;36.69;48.52;;
37833;Laerm;23678;48.778;9.160;2023-12-20T09:39:02;43.27;36.20;54.05;;
37833;Laerm;23678;48.778;9.160;2023-12-20T09:41:54;40.65;36.45;51.00;;
37833;Laerm;23678;48.778;9.160;2023-12-20T09:44:42;43.21;36.69;51.41;;
37833;Laerm;23678;48.778;9.160;2023-12-20T09:47:27;42.52;36.69;54.99;;
37833;Laerm;23678;48.778;9.160;2023-12-20T09:50:11;41.53;36.45;52.33;;
37833;Laerm;23678;48.778;9.160;2023-12-20T09:52:55;43.46;36.45;58.44;;
37833;Laerm;23678;48.778;9.160;2023-12-20T09:55:42;43.59;37.12;55.57;;
37833;Laerm;23678;48.778;9.160;2023-12-20T09:58:26;43.97;37.52;62.21;;
37833;Laerm;23678;48.778;9.160;2023-12-20T10:01:10;43.41;38.05;59.08;;
37833;Laerm;23678;48.778;9.160;2023-12-20T10:03:54;44.22;37.70;56.29;;
37833;Laerm;23678;48.778;9.160;2023-12-20T10:06:39;42.13;37.52;52.41;;
37833;Laerm;23678;48.778;9.160;2023-12-20T10:09:23;42.32;36.91;54.54;;
37833;Laerm;23678;48.778;9.160;2023-12-20T10:12:07;43.69;36.69;52.78;;
37833;Laerm;23678;48.778;9.160;2023-12-20T10:14:52;43.58;36.91;55.12;;
37833;Laerm;23678;48.778;9.160;2023-12-20T10:17:36;44.20;35.94;61.32;;
37833;Laerm;23678;48.778;9.160;2023-12-20T10:20:20;43.29;36.45;54.66;;
37833;Laerm;23678;48.778;9.160;2023-12-20T10:23:03;41.20;36.69;57.57;;
37833;Laerm;23678;48.778;9.160;2023-12-20T10:26:00;43.18;36.69;56.21;;
37833;Laerm;23678;48.778;9.160;2023-12-20T10:28:43;45.77;37.32;55.25;;
37833;Laerm;23678;48.778;9.160;2023-12-20T10:34:12;43.01;36.45;57.43;;
37833;Laerm;23678;48.778;9.160;2023-12-20T10:36:56;40.31;35.94;56.23;;
37833;Laerm;23678;48.778;9.160;2023-12-20T10:39:40;40.53;36.20;49.93;;
37833;Laerm;23678;48.778;9.160;2023-12-20T10:42:26;41.65;35.94;54.15;;
37833;Laerm;23678;48.778;9.160;2023-12-20T10:45:10;41.59;36.69;58.16;;
37833;Laerm;23678;48.778;9.160;2023-12-20T10:47:54;42.35;36.69;69.30;;
37833;Laerm;23678;48.778;9.160;2023-12-20T10:50:39;43.70;36.69;60.48;;
37833;Laerm;23678;48.778;9.160;2023-12-20T10:53:24;43.18;37.32;56.12;;
37833;Laerm;23678;48.778;9.160;2023-12-20T10:56:08;45.61;37.88;54.03;;
37833;Laerm;23678;48.778;9.160;2023-12-20T10:58:56;48.90;36.45;58.91;;
37833;Laerm;23678;48.778;9.160;2023-12-20T11:01:41;46.52;38.37;58.97;;
37833;Laerm;23678;48.778;9.160;2023-12-20T11:04:26;45.71;36.69;65.25;;
37833;Laerm;23678;48.778;9.160;2023-12-20T11:10:03;41.86;35.94;52.48;;
37833;Laerm;23678;48.778;9.160;2023-12-20T11:12:52;40.77;35.66;51.93;;
37833;Laerm;23678;48.778;9.160;2023-12-20T11:15:38;42.29;36.34;54.79;;
37833;Laerm;23678;48.778;9.160;2023-12-20T11:18:28;41.15;35.66;53.99;;
37833;Laerm;23678;48.778;9.160;2023-12-20T11:21:12;42.86;35.94;55.47;;
37833;Laerm;23678;48.778;9.160;2023-12-20T11:23:58;43.03;36.69;53.95;;
37833;Laerm;23678;48.778;9.160;2023-12-20T11:26:46;40.17;36.45;55.27;;
37833;Laerm;23678;48.778;9.160;2023-12-20T11:37:52;41.11;35.94;56.60;;
37833;Laerm;23678;48.778;9.160;2023-12-20T11:40:36;42.83;36.45;56.52;;
37833;Laerm;23678;48.778;9.160;2023-12-20T11:46:34;43.53;37.12;66.77;;
37833;Laerm;23678;48.778;9.160;2023-12-20T11:49:18;41.38;36.20;53.38;;
37833;Laerm;23678;48.778;9.160;2023-12-20T11:52:06;42.44;37.32;51.87;;
37833;Laerm;23678;48.778;9.160;2023-12-20T11:54:50;43.42;36.20;57.42;;
37833;Laerm;23678;48.778;9.160;2023-12-20T11:57:35;45.29;37.12;59.49;;
37833;Laerm;23678;48.778;9.160;2023-12-20T12:00:19;43.13;36.91;52.60;;
37833;Laerm;23678;48.778;9.160;2023-12-20T12:03:04;43.16;36.20;54.21;;
37833;Laerm;23678;48.778;9.160;2023-12-20T12:08:57;42.04;36.20;53.67;;
37833;Laerm;23678;48.778;9.160;2023-12-20T12:11:41;42.76;36.69;54.31;;
37833;Laerm;23678;48.778;9.160;2023-12-20T12:14:25;41.73;35.66;54.40;;
37833;Laerm;23678;48.778;9.160;2023-12-20T12:17:13;43.18;37.17;56.76;;
37833;Laerm;23678;48.778;9.160;2023-12-20T12:20:03;41.80;36.20;54.25;;
37833;Laerm;23678;48.778;9.160;2023-12-20T12:23:00;43.94;36.20;69.57;;
37833;Laerm;23678;48.778;9.160;2023-12-20T12:25:45;43.42;35.94;68.88;;
37833;Laerm;23678;48.778;9.160;2023-12-20T12:28:29;43.91;36.20;56.65;;
37833;Laerm;23678;48.778;9.160;2023-12-20T12:31:15;49.85;37.35;69.73;;
37833;Laerm;23678;48.778;9.160;2023-12-20T12:33:59;42.59;36.69;62.21;;
37833;Laerm;23678;48.778;9.160;2023-12-20T12:36:43;43.55;36.20;61.49;;
37833;Laerm;23678;48.778;9.160;2023-12-20T12:39:27;41.39;35.04;64.79;;
37833;Laerm;23678;48.778;9.160;2023-12-20T12:42:11;40.35;34.69;52.15;;
37833;Laerm;23678;48.778;9.160;2023-12-20T12:44:55;42.15;35.04;53.00;;
37833;Laerm;23678;48.778;9.160;2023-12-20T12:47:40;40.84;36.45;45.48;;
37833;Laerm;23678;48.778;9.160;2023-12-20T12:50:24;43.54;37.52;56.00;;
37833;Laerm;23678;48.778;9.160;2023-12-20T12:53:08;44.22;36.69;57.93;;
37833;Laerm;23678;48.778;9.160;2023-12-20T12:55:52;43.01;36.91;55.63;;
37833;Laerm;23678;48.778;9.160;2023-12-20T12:58:35;41.79;36.45;53.84;;
37833;Laerm;23678;48.778;9.160;2023-12-20T13:01:20;41.96;36.20;53.36;;
37833;Laerm;23678;48.778;9.160;2023-12-20T13:04:04;42.26;36.91;55.46;;
37833;Laerm;23678;48.778;9.160;2023-12-20T13:06:53;42.28;35.04;54.07;;
37833;Laerm;23678;48.778;9.160;2023-12-20T13:09:41;42.54;34.69;58.00;;
37833;Laerm;23678;48.778;9.160;2023-12-20T13:12:25;43.98;35.94;58.17;;
37833;Laerm;23678;48.778;9.160;2023-12-20T13:15:09;42.01;36.20;50.61;;
37833;Laerm;23678;48.778;9.160;2023-12-20T13:17:53;40.82;35.04;49.39;;
37833;Laerm;23678;48.778;9.160;2023-12-20T13:20:37;42.14;35.94;53.14;;
37833;Laerm;23678;48.778;9.160;2023-12-20T13:23:23;42.76;35.04;59.28;;
37833;Laerm;23678;48.778;9.160;2023-12-20T13:26:07;46.79;37.52;70.48;;
37833;Laerm;23678;48.778;9.160;2023-12-20T13:28:51;41.69;36.20;55.16;;
37833;Laerm;23678;48.778;9.160;2023-12-20T13:31:34;40.72;35.66;57.33;;
37833;Laerm;23678;48.778;9.160;2023-12-20T13:34:20;42.16;35.04;54.24;;
37833;Laerm;23678;48.778;9.160;2023-12-20T13:37:04;42.80;35.94;55.98;;
37833;Laerm;23678;48.778;9.160;2023-12-20T13:39:48;43.04;36.20;56.14;;
37833;Laerm;23678;48.778;9.160;2023-12-20T13:42:32;43.43;35.94;58.48;;
37833;Laerm;23678;48.778;9.160;2023-12-20T13:45:16;41.54;36.20;54.64;;
37833;Laerm;23678;48.778;9.160;2023-12-20T13:48:00;43.14;35.66;53.66;;
37833;Laerm;23678;48.778;9.160;2023-12-20T13:50:44;41.50;36.20;54.54;;
37833;Laerm;23678;48.778;9.160;2023-12-20T13:53:28;45.86;36.45;61.19;;
37833;Laerm;23678;48.778;9.160;2023-12-20T13:56:12;41.16;36.20;50.41;;
37833;Laerm;23678;48.778;9.160;2023-12-20T13:58:56;40.92;35.36;53.67;;
37833;Laerm;23678;48.778;9.160;2023-12-20T14:01:40;43.33;35.94;67.19;;
37833;Laerm;23678;48.778;9.160;2023-12-20T14:04:23;43.12;36.45;54.99;;
37833;Laerm;23678;48.778;9.160;2023-12-20T14:07:07;42.62;36.91;56.89;;
37833;Laerm;23678;48.778;9.160;2023-12-20T14:09:53;43.93;36.69;68.09;;
37833;Laerm;23678;48.778;9.160;2023-12-20T14:12:37;43.54;36.20;55.70;;
37833;Laerm;23678;48.778;9.160;2023-12-20T14:15:21;43.50;36.91;57.15;;
37833;Laerm;23678;48.778;9.160;2023-12-20T14:18:08;42.27;36.77;51.91;;
37833;Laerm;23678;48.778;9.160;2023-12-20T14:20:53;42.26;36.56;52.92;;
37833;Laerm;23678;48.778;9.160;2023-12-20T14:23:37;41.79;36.20;55.15;;
37833;Laerm;23678;48.778;9.160;2023-12-20T14:26:21;42.55;36.69;53.99;;
37833;Laerm;23678;48.778;9.160;2023-12-20T14:29:05;44.76;36.69;61.10;;
37833;Laerm;23678;48.778;9.160;2023-12-20T14:31:51;42.61;36.69;52.96;;
37833;Laerm;23678;48.778;9.160;2023-12-20T14:34:34;42.30;36.91;60.78;;
37833;Laerm;23678;48.778;9.160;2023-12-20T14:37:18;42.19;36.20;53.73;;
37833;Laerm;23678;48.778;9.160;2023-12-20T14:40:02;41.72;36.91;51.01;;
37833;Laerm;23678;48.778;9.160;2023-12-20T14:42:46;41.30;36.45;52.36;;
37833;Laerm;23678;48.778;9.160;2023-12-20T14:45:30;42.77;36.91;55.26;;
37833;Laerm;23678;48.778;9.160;2023-12-20T14:48:14;41.83;36.45;51.56;;
37833;Laerm;23678;48.778;9.160;2023-12-20T14:50:59;41.67;35.66;51.59;;
37833;Laerm;23678;48.778;9.160;2023-12-20T14:53:43;43.43;37.32;55.54;;
37833;Laerm;23678;48.778;9.160;2023-12-20T14:56:27;42.64;37.32;57.76;;
37833;Laerm;23678;48.778;9.160;2023-12-20T14:59:11;43.93;36.91;55.80;;
37833;Laerm;23678;48.778;9.160;2023-12-20T15:01:55;43.97;37.32;54.48;;
37833;Laerm;23678;48.778;9.160;2023-12-20T15:04:39;45.68;38.52;59.78;;
37833;Laerm;23678;48.778;9.160;2023-12-20T15:07:24;41.94;36.69;54.11;;
37833;Laerm;23678;48.778;9.160;2023-12-20T15:10:08;41.35;36.20;50.77;;
37833;Laerm;23678;48.778;9.160;2023-12-20T15:12:52;41.89;36.91;49.53;;
37833;Laerm;23678;48.778;9.160;2023-12-20T15:15:36;43.44;35.94;57.82;;
37833;Laerm;23678;48.778;9.160;2023-12-20T15:18:21;43.68;36.45;55.17;;
37833;Laerm;23678;48.778;9.160;2023-12-20T15:21:05;43.06;36.91;54.77;;
37833;Laerm;23678;48.778;9.160;2023-12-20T15:23:49;43.03;36.20;53.08;;
37833;Laerm;23678;48.778;9.160;2023-12-20T15:26:37;42.58;36.45;55.29;;
37833;Laerm;23678;48.778;9.160;2023-12-20T15:29:22;42.19;36.45;51.82;;
37833;Laerm;23678;48.778;9.160;2023-12-20T15:32:05;41.96;35.94;54.44;;
37833;Laerm;23678;48.778;9.160;2023-12-20T15:34:49;43.53;36.20;61.35;;
37833;Laerm;23678;48.778;9.160;2023-12-20T15:37:34;41.53;35.66;50.94;;
37833;Laerm;23678;48.778;9.160;2023-12-20T15:40:18;42.11;35.94;57.82;;